Terminal Aerodrome Forecast
Issued by NWS Columbia, SC

Home | Current Version | Previous Version | Text Only | Print | Product List | Glossary On
Versions: 1 2 3 4 5 6 7 8 9 10 11 12 13 14 15 16 17 18 19 20 21 22 23 24 25 26 27 28 29 30 31 32 33 34 35 36 37 38 39 40 41 42 43 44 45 46 47 48 49 50
970
FTUS42 KCAE 221140
TAFAGS
TAF
KAGS 221140Z 2212/2312 VRB03KT 1/2SM FG VV002
      TEMPO 2213/2214 2SM BR BKN005
     FM221400 15005KT 6SM BR BKN020
     FM221600 16006KT P6SM VCSH SCT020 BKN150
     FM221700 18008KT P6SM VCSH SCT050 BKN150
     FM222300 16004KT P6SM OVC100=

USA.gov is the U.S. government's official web portal to all federal, state and local government web resources and services.